createdAt,value
2019-04-22T00:00:04.742Z,23
2019-04-22T00:01:05.002Z,23
2019-04-22T00:02:05.977Z,21
2019-04-22T00:03:06.588Z,21
2019-04-22T00:04:10.038Z,21
2019-04-22T00:05:14.381Z,21
2019-04-22T00:06:21.105Z,21
2019-04-22T00:07:22.959Z,21
2019-04-22T00:08:29.611Z,19
2019-04-22T00:10:21.101Z,20
2019-04-22T00:11:29.046Z,20
2019-04-22T00:12:20.870Z,20
2019-04-22T00:14:26.423Z,21
2019-04-22T00:15:15.417Z,25
2019-04-22T00:16:34.314Z,25
2019-04-22T00:17:31.754Z,25
2019-04-22T00:18:30.479Z,25
2019-04-22T00:19:33.548Z,25
2019-04-22T00:20:33.634Z,18
2019-04-22T00:21:35.226Z,23
2019-04-22T00:22:22.306Z,23
2019-04-22T00:23:24.595Z,23
2019-04-22T00:24:27.338Z,23
2019-04-22T00:25:24.519Z,23
2019-04-22T00:26:29.011Z,21
2019-04-22T00:27:29.456Z,23
2019-04-22T00:28:32.357Z,23
2019-04-22T00:30:18.182Z,23
2019-04-22T00:31:26.720Z,23
2019-04-22T00:32:24.278Z,22
2019-04-22T00:33:26.549Z,24
2019-04-22T00:34:22.522Z,24
2019-04-22T00:35:26.910Z,24
2019-04-22T00:36:28.568Z,24
2019-04-22T00:37:28.328Z,24
2019-04-22T00:38:31.794Z,21
2019-04-22T00:40:30.193Z,20
2019-04-22T00:41:34.181Z,20
2019-04-22T00:42:28.407Z,20
2019-04-22T00:43:28.876Z,20
2019-04-22T00:44:33.599Z,18
2019-04-22T00:45:26.733Z,23
2019-04-22T00:46:36.131Z,23
2019-04-22T00:47:29.134Z,23
2019-04-22T00:48:27.856Z,23
2019-04-22T00:50:06.269Z,23
2019-04-22T00:50:30.222Z,20
2019-04-22T00:51:31.529Z,22
2019-04-22T00:52:28.160Z,22
2019-04-22T00:53:33.376Z,22
2019-04-22T00:54:32.902Z,22
2019-04-22T00:55:21.910Z,22
2019-04-22T00:56:22.118Z,22
2019-04-22T00:57:28.259Z,19
2019-04-22T00:58:24.148Z,19
2019-04-22T01:00:32.109Z,19
2019-04-22T01:01:19.185Z,19
2019-04-22T01:02:27.730Z,21
2019-04-22T01:03:34.165Z,22
2019-04-22T01:04:34.666Z,22
2019-04-22T01:05:32.459Z,22
2019-04-22T01:06:25.742Z,22
2019-04-22T01:07:26.823Z,22
2019-04-22T01:08:34.625Z,17
2019-04-22T01:09:16.900Z,22
2019-04-22T01:10:32.428Z,22
2019-04-22T01:11:29.554Z,22
2019-04-22T01:12:26.346Z,22
2019-04-22T01:13:27.645Z,22
2019-04-22T01:14:28.054Z,21
2019-04-22T01:15:31.947Z,22
2019-04-22T01:16:29.785Z,22
2019-04-22T01:17:29.344Z,22
2019-04-22T01:18:32.736Z,22
2019-04-22T01:19:34.805Z,22
2019-04-22T01:20:54.634Z,18
2019-04-22T01:21:28.846Z,22
2019-04-22T01:23:23.698Z,22
2019-04-22T01:24:22.208Z,22
2019-04-22T01:26:22.919Z,21
2019-04-22T01:27:20.609Z,25
2019-04-22T01:28:21.758Z,25
2019-04-22T01:29:14.955Z,25
2019-04-22T01:30:14.967Z,25
2019-04-22T01:31:09.602Z,25
2019-04-22T01:32:05.911Z,17
2019-04-22T01:33:09.447Z,23
2019-04-22T01:34:16.188Z,23
2019-04-22T01:35:12.952Z,23
2019-04-22T01:37:20.279Z,23
2019-04-22T01:38:13.205Z,22
2019-04-22T01:39:31.823Z,22
2019-04-22T01:40:33.408Z,22
2019-04-22T01:41:35.846Z,22
2019-04-22T01:42:28.155Z,22
2019-04-22T01:43:35.396Z,22
2019-04-22T01:46:32.360Z,20
2019-04-22T01:48:35.789Z,20
2019-04-22T01:49:30.223Z,20
2019-04-22T01:50:27.755Z,20
2019-04-22T01:51:40.593Z,19
2019-04-22T01:53:28.664Z,19
2019-04-22T01:56:27.566Z,21
2019-04-22T01:57:22.836Z,26
2019-04-22T01:58:23.664Z,26
2019-04-22T01:59:22.466Z,26
2019-04-22T02:00:27.249Z,26
2019-04-22T02:01:24.627Z,26
2019-04-22T02:02:31.060Z,19
2019-04-22T02:03:33.311Z,23
2019-04-22T02:04:35.418Z,23
2019-04-22T02:05:23.912Z,23
2019-04-22T02:06:33.224Z,23
2019-04-22T02:08:25.523Z,17
2019-04-22T02:09:31.236Z,22
2019-04-22T02:10:34.534Z,22
2019-04-22T02:11:33.866Z,22
2019-04-22T02:12:25.798Z,22
2019-04-22T02:13:29.007Z,22
2019-04-22T02:16:27.842Z,23
2019-04-22T02:17:31.568Z,23
2019-04-22T02:18:32.951Z,23
2019-04-22T02:19:30.456Z,23
2019-04-22T02:20:23.353Z,20
2019-04-22T02:21:31.917Z,24
2019-04-22T02:22:42.872Z,24
2019-04-22T02:23:40.910Z,24
2019-04-22T02:24:33.323Z,24
2019-04-22T02:25:32.280Z,24
2019-04-22T02:26:31.383Z,19
2019-04-22T02:27:35.471Z,23
2019-04-22T02:28:36.705Z,23
2019-04-22T02:29:30.056Z,23
2019-04-22T02:30:37.027Z,23
2019-04-22T02:31:36.065Z,23
2019-04-22T02:33:41.009Z,22
2019-04-22T02:34:32.496Z,22
2019-04-22T02:35:31.221Z,22
2019-04-22T02:36:36.476Z,22
2019-04-22T02:37:32.107Z,22
2019-04-22T02:38:57.446Z,24
2019-04-22T02:42:24.247Z,27
2019-04-22T02:45:39.401Z,23
2019-04-22T02:46:46.178Z,23
2019-04-22T02:47:27.646Z,23
2019-04-22T02:48:34.079Z,23
2019-04-22T02:49:31.421Z,23
2019-04-22T02:50:28.555Z,20
2019-04-22T02:51:27.837Z,23
2019-04-22T02:52:26.338Z,23
2019-04-22T02:56:31.879Z,24
2019-04-22T02:57:37.057Z,25
2019-04-22T02:58:46.820Z,25
2019-04-22T02:59:34.974Z,25
2019-04-22T03:00:51.161Z,25
2019-04-22T03:03:31.380Z,23
2019-04-22T03:04:20.471Z,23
2019-04-22T03:05:40.902Z,23
2019-04-22T03:07:34.359Z,23
2019-04-22T03:09:31.690Z,24
2019-04-22T03:10:47.344Z,24
2019-04-22T03:11:34.143Z,24
2019-04-22T03:12:28.806Z,24
2019-04-22T03:14:22.396Z,22
2019-04-22T03:15:38.077Z,24
2019-04-22T03:17:25.514Z,24
2019-04-22T03:18:44.105Z,24
2019-04-22T03:19:47.766Z,24
2019-04-22T03:20:14.515Z,25
2019-04-22T03:21:33.761Z,27
2019-04-22T03:22:21.091Z,27
2019-04-22T03:26:27.388Z,25
2019-04-22T03:27:29.721Z,26
2019-04-22T03:28:43.574Z,26
2019-04-22T03:33:36.232Z,22
2019-04-22T03:35:50.086Z,22
2019-04-22T03:37:03.852Z,22
2019-04-22T03:37:45.601Z,22
2019-04-22T03:38:31.226Z,24
2019-04-22T03:40:44.726Z,25
2019-04-22T03:41:48.178Z,25
2019-04-22T03:42:32.585Z,25
2019-04-22T03:43:48.611Z,25
2019-04-22T03:45:28.459Z,22
2019-04-22T03:47:38.663Z,22
2019-04-22T03:48:36.367Z,22
2019-04-22T03:49:30.761Z,22
2019-04-22T03:50:28.163Z,23
2019-04-22T03:51:47.869Z,28
2019-04-22T03:52:15.786Z,28
2019-04-22T03:53:20.988Z,28
2019-04-22T03:54:39.980Z,28
2019-04-22T03:55:37.400Z,28
2019-04-22T03:57:10.105Z,24
2019-04-22T03:57:50.430Z,28
2019-04-22T03:58:45.491Z,28
2019-04-22T04:00:43.708Z,28
2019-04-22T04:02:38.828Z,20
2019-04-22T04:03:35.580Z,26
2019-04-22T04:04:43.220Z,26
2019-04-22T04:06:32.787Z,26
2019-04-22T04:08:35.702Z,24
2019-04-22T04:09:25.040Z,26
2019-04-22T04:10:35.346Z,26
2019-04-22T04:13:34.033Z,26
2019-04-22T04:14:37.320Z,25
2019-04-22T04:15:32.904Z,27
2019-04-22T04:16:40.996Z,27
2019-04-22T04:18:41.137Z,27
2019-04-22T04:19:54.163Z,27
2019-04-22T04:20:32.207Z,27
2019-04-22T04:21:37.109Z,27
2019-04-22T04:22:56.739Z,27
2019-04-22T04:23:50.560Z,27
2019-04-22T04:24:44.813Z,27
2019-04-22T04:26:45.555Z,27
2019-04-22T04:29:45.521Z,27
2019-04-22T04:30:31.502Z,27
2019-04-22T04:32:51.378Z,26
2019-04-22T04:33:38.163Z,28
2019-04-22T04:34:56.266Z,28
2019-04-22T04:35:32.384Z,28
2019-04-22T04:37:44.997Z,28
2019-04-22T04:38:43.495Z,28
2019-04-22T04:39:34.574Z,32
2019-04-22T04:40:31.523Z,32
2019-04-22T04:42:46.041Z,32
2019-04-22T04:46:24.294Z,32
2019-04-22T04:49:23.994Z,32
2019-04-22T04:50:39.956Z,28
2019-04-22T04:51:37.705Z,28
2019-04-22T04:53:28.811Z,28
2019-04-22T04:54:41.487Z,28
2019-04-22T04:55:34.990Z,28
2019-04-22T04:56:36.390Z,28
2019-04-22T04:57:43.593Z,32
2019-04-22T04:58:46.584Z,32
2019-04-22T04:59:57.695Z,32
2019-04-22T05:00:48.122Z,32
2019-04-22T05:05:35.310Z,31
2019-04-22T05:06:42.957Z,31
2019-04-22T05:08:52.519Z,29
2019-04-22T05:12:45.024Z,32
2019-04-22T05:13:39.408Z,32
2019-04-22T05:14:24.549Z,36
2019-04-22T05:15:38.001Z,31
2019-04-22T05:16:25.466Z,31
2019-04-22T05:17:41.260Z,31
2019-04-22T05:19:22.506Z,31
2019-04-22T05:20:49.235Z,33
2019-04-22T05:23:25.512Z,35
2019-04-22T05:24:29.728Z,35
2019-04-22T05:25:28.492Z,35
2019-04-22T05:26:32.524Z,32
2019-04-22T05:27:34.119Z,35
2019-04-22T05:28:31.547Z,35
2019-04-22T05:29:32.691Z,35
2019-04-22T05:30:23.577Z,35
2019-04-22T05:31:35.527Z,35
2019-04-22T05:32:31.312Z,35
2019-04-22T05:33:32.047Z,36
2019-04-22T05:34:30.197Z,36
2019-04-22T05:35:26.255Z,36
2019-04-22T05:36:30.097Z,36
2019-04-22T05:37:27.677Z,36
2019-04-22T05:38:33.125Z,37
2019-04-22T05:39:17.256Z,39
2019-04-22T05:40:28.232Z,39
2019-04-22T05:42:20.279Z,39
2019-04-22T05:43:27.315Z,39
2019-04-22T05:44:29.408Z,33
2019-04-22T05:45:20.580Z,37
2019-04-22T05:47:25.689Z,37
2019-04-22T05:48:34.215Z,37
2019-04-22T05:49:23.838Z,37
2019-04-22T05:50:23.854Z,35
2019-04-22T05:51:32.544Z,40
2019-04-22T05:52:22.367Z,40
2019-04-22T05:53:29.984Z,40
2019-04-22T05:54:30.436Z,40
2019-04-22T05:55:30.577Z,40
2019-04-22T05:56:34.227Z,37
2019-04-22T05:57:26.124Z,39
2019-04-22T05:58:31.568Z,39
2019-04-22T06:02:41.757Z,39
2019-04-22T06:03:32.519Z,37
2019-04-22T06:04:19.838Z,37
2019-04-22T06:05:16.899Z,37
2019-04-22T06:07:19.695Z,37
2019-04-22T06:08:24.111Z,41
2019-04-22T06:09:15.336Z,41
2019-04-22T06:10:19.887Z,41
2019-04-22T06:12:23.474Z,41
2019-04-22T06:13:23.306Z,41
2019-04-22T06:14:24.849Z,41
2019-04-22T06:15:20.742Z,45
2019-04-22T06:16:31.143Z,45
2019-04-22T06:18:27.082Z,45
2019-04-22T06:19:18.580Z,45
2019-04-22T06:21:28.116Z,45
2019-04-22T06:22:40.015Z,45
2019-04-22T06:24:27.978Z,45
2019-04-22T06:25:39.507Z,45
2019-04-22T06:26:40.902Z,41
2019-04-22T06:27:31.366Z,48
2019-04-22T06:28:38.424Z,48
2019-04-22T06:29:26.700Z,48
2019-04-22T06:30:29.099Z,48
2019-04-22T06:33:31.974Z,49
2019-04-22T06:34:32.163Z,49
2019-04-22T06:36:30.946Z,49
2019-04-22T06:37:33.950Z,49
2019-04-22T06:40:31.745Z,45
2019-04-22T06:41:27.346Z,45
2019-04-22T06:42:28.755Z,45
2019-04-22T06:46:27.445Z,49
2019-04-22T06:47:28.682Z,49
2019-04-22T06:48:31.752Z,49
2019-04-22T06:50:31.452Z,46
2019-04-22T06:51:27.020Z,48
2019-04-22T06:52:22.621Z,48
2019-04-22T06:54:28.984Z,48
2019-04-22T06:55:23.226Z,48
2019-04-22T06:56:22.382Z,48
2019-04-22T06:57:27.263Z,49
2019-04-22T06:58:28.940Z,49
2019-04-22T06:59:21.646Z,49
2019-04-22T07:00:32.361Z,49
2019-04-22T07:01:31.828Z,49
2019-04-22T07:02:32.071Z,46
2019-04-22T07:04:16.689Z,50
2019-04-22T07:05:28.675Z,50
2019-04-22T07:06:19.685Z,50
2019-04-22T07:07:29.713Z,50
2019-04-22T07:09:03.760Z,51
2019-04-22T07:10:35.156Z,48
2019-04-22T07:11:23.618Z,48
2019-04-22T07:12:17.340Z,48
2019-04-22T07:13:27.870Z,48
2019-04-22T07:14:18.193Z,49
2019-04-22T07:15:43.849Z,48
2019-04-22T07:17:31.320Z,48
2019-04-22T07:18:33.783Z,48
2019-04-22T07:19:31.896Z,48
2019-04-22T07:20:30.373Z,46
2019-04-22T07:21:19.729Z,50
2019-04-22T07:22:30.606Z,50
2019-04-22T07:23:31.954Z,50
2019-04-22T07:24:40.459Z,50
2019-04-22T07:26:23.096Z,52
2019-04-22T07:27:18.908Z,51
2019-04-22T07:28:15.586Z,51
2019-04-22T07:29:25.077Z,51
2019-04-22T07:30:26.487Z,51
2019-04-22T07:31:30.662Z,51
2019-04-22T07:32:51.697Z,51
2019-04-22T07:34:25.366Z,52
2019-04-22T07:35:28.539Z,52
2019-04-22T07:36:49.040Z,52
2019-04-22T07:37:28.198Z,52
2019-04-22T07:38:23.742Z,50
2019-04-22T07:39:15.626Z,51
2019-04-22T07:40:37.307Z,51
2019-04-22T07:41:21.881Z,51
2019-04-22T07:43:40.883Z,51
2019-04-22T07:44:30.948Z,50
2019-04-22T07:45:29.546Z,53
2019-04-22T07:46:28.652Z,53
2019-04-22T07:47:35.864Z,53
2019-04-22T07:48:33.841Z,53
2019-04-22T07:49:33.404Z,53
2019-04-22T07:50:26.729Z,51
2019-04-22T07:51:21.134Z,53
2019-04-22T07:53:21.892Z,53
2019-04-22T07:54:26.453Z,53
2019-04-22T07:55:27.630Z,53
2019-04-22T07:56:21.387Z,57
2019-04-22T07:57:20.240Z,50
2019-04-22T08:00:29.489Z,50
2019-04-22T08:01:26.868Z,50
2019-04-22T08:03:22.690Z,55
2019-04-22T08:06:29.282Z,55
2019-04-22T08:07:29.981Z,55
2019-04-22T08:08:29.062Z,52
2019-04-22T08:09:27.718Z,51
2019-04-22T08:13:20.590Z,51
2019-04-22T08:14:30.792Z,52
2019-04-22T08:15:27.341Z,51
2019-04-22T08:16:23.310Z,51
2019-04-22T08:17:52.121Z,51
2019-04-22T08:18:28.965Z,51
2019-04-22T08:19:28.738Z,51
2019-04-22T08:20:28.981Z,51
2019-04-22T08:21:23.758Z,54
2019-04-22T08:22:32.467Z,54
2019-04-22T08:23:23.750Z,54
2019-04-22T08:24:22.730Z,54
2019-04-22T08:25:25.175Z,54
2019-04-22T08:26:27.542Z,51
2019-04-22T08:27:22.558Z,53
2019-04-22T08:28:30.315Z,53
2019-04-22T08:32:28.029Z,49
2019-04-22T08:33:29.085Z,55
2019-04-22T08:34:23.245Z,55
2019-04-22T08:36:18.405Z,55
2019-04-22T08:38:17.637Z,52
2019-04-22T08:39:25.522Z,54
2019-04-22T08:41:33.168Z,54
2019-04-22T08:42:35.156Z,54
2019-04-22T08:43:38.057Z,54
2019-04-22T08:44:39.759Z,52
2019-04-22T08:45:36.609Z,51
2019-04-22T08:48:30.895Z,51
2019-04-22T08:49:16.143Z,51
2019-04-22T08:50:26.889Z,52
2019-04-22T08:51:24.979Z,53
2019-04-22T08:52:31.871Z,53
2019-04-22T08:56:32.094Z,51
2019-04-22T08:57:40.803Z,54
2019-04-22T08:58:29.502Z,54
2019-04-22T08:59:24.778Z,54
2019-04-22T09:00:34.334Z,54
2019-04-22T09:02:25.956Z,50
2019-04-22T09:03:24.427Z,54
2019-04-22T09:04:16.249Z,54
2019-04-22T09:05:43.534Z,54
2019-04-22T09:06:22.409Z,54
2019-04-22T09:07:28.321Z,54
2019-04-22T09:08:18.871Z,54
2019-04-22T09:09:26.816Z,52
2019-04-22T09:10:32.832Z,52
2019-04-22T09:11:35.288Z,52
2019-04-22T09:12:34.580Z,52
2019-04-22T09:13:30.082Z,52
2019-04-22T09:14:33.980Z,51
2019-04-22T09:15:31.045Z,51
2019-04-22T09:17:28.367Z,51
2019-04-22T09:18:32.997Z,51
2019-04-22T09:19:18.293Z,51
2019-04-22T09:20:30.490Z,51
2019-04-22T09:21:32.652Z,52
2019-04-22T09:22:17.246Z,52
2019-04-22T09:23:33.909Z,52
2019-04-22T09:25:32.722Z,52
2019-04-22T09:26:30.686Z,51
2019-04-22T09:27:36.991Z,53
2019-04-22T09:29:34.367Z,53
2019-04-22T09:30:21.781Z,53
2019-04-22T09:31:23.927Z,53
2019-04-22T09:32:20.279Z,48
2019-04-22T09:33:27.152Z,51
2019-04-22T09:34:27.767Z,51
2019-04-22T09:35:31.881Z,51
2019-04-22T09:36:28.810Z,51
2019-04-22T09:37:36.369Z,51
2019-04-22T09:39:29.428Z,49
2019-04-22T09:40:28.408Z,49
2019-04-22T09:41:27.662Z,49
2019-04-22T09:42:18.755Z,49
2019-04-22T09:43:33.617Z,49
2019-04-22T09:44:33.148Z,49
2019-04-22T09:45:15.156Z,49
2019-04-22T09:46:28.372Z,49
2019-04-22T09:47:30.792Z,49
2019-04-22T09:48:33.650Z,49
2019-04-22T09:49:18.920Z,49
2019-04-22T09:50:29.370Z,49
2019-04-22T09:51:25.373Z,49
2019-04-22T09:52:28.021Z,49
2019-04-22T09:53:29.750Z,49
2019-04-22T09:54:21.726Z,49
2019-04-22T09:55:17.971Z,49
2019-04-22T09:57:24.657Z,48
2019-04-22T09:59:28.582Z,48
2019-04-22T10:00:31.507Z,48
2019-04-22T10:02:26.284Z,48
2019-04-22T10:03:26.010Z,48
2019-04-22T10:04:27.330Z,48
2019-04-22T10:05:28.817Z,48
2019-04-22T10:07:27.136Z,48
2019-04-22T10:08:31.987Z,36
2019-04-22T10:09:40.550Z,45
2019-04-22T10:14:18.978Z,44
2019-04-22T10:15:26.766Z,47
2019-04-22T10:16:35.755Z,47
2019-04-22T10:17:26.184Z,47
2019-04-22T10:20:26.938Z,44
2019-04-22T10:21:35.336Z,46
2019-04-22T10:22:32.331Z,46
2019-04-22T10:23:20.082Z,46
2019-04-22T10:30:41.751Z,25
2019-04-22T10:31:31.078Z,25
2019-04-22T10:32:27.147Z,25
2019-04-22T10:33:23.944Z,25
2019-04-22T10:34:14.159Z,45
2019-04-22T10:35:06.795Z,45
2019-04-22T10:36:01.793Z,45
2019-04-22T10:37:06.416Z,45
2019-04-22T10:38:02.336Z,45
2019-04-22T10:39:02.248Z,45
2019-04-22T10:40:05.693Z,43
2019-04-22T10:41:02.742Z,43
2019-04-22T10:42:02.890Z,43
2019-04-22T10:43:03.171Z,43
2019-04-22T10:44:05.487Z,43
2019-04-22T10:45:01.796Z,43
2019-04-22T10:46:02.107Z,41
2019-04-22T10:47:02.272Z,41
2019-04-22T10:48:01.705Z,41
2019-04-22T10:49:02.031Z,41
2019-04-22T10:50:02.688Z,41
2019-04-22T10:51:02.374Z,41
2019-04-22T10:52:02.691Z,43
2019-04-22T10:53:01.757Z,43
2019-04-22T10:54:01.966Z,43
2019-04-22T10:55:03.390Z,43
2019-04-22T10:56:03.230Z,43
2019-04-22T10:57:03.235Z,43
2019-04-22T10:58:02.396Z,43
2019-04-22T10:59:02.584Z,43
2019-04-22T11:00:04.975Z,43
2019-04-22T11:01:03.276Z,43
2019-04-22T11:02:03.406Z,43
2019-04-22T11:03:02.439Z,43
2019-04-22T11:04:01.573Z,41
2019-04-22T11:05:02.103Z,41
2019-04-22T11:06:03.189Z,41
2019-04-22T11:07:05.445Z,41
2019-04-22T11:08:04.886Z,41
2019-04-22T11:09:04.731Z,41
2019-04-22T11:10:20.493Z,42
2019-04-22T11:11:16.075Z,42
2019-04-22T11:12:06.466Z,42
2019-04-22T11:13:02.937Z,42
2019-04-22T11:14:02.007Z,42
2019-04-22T11:15:03.491Z,42
2019-04-22T11:16:01.446Z,40
2019-04-22T11:17:03.331Z,40
2019-04-22T11:18:02.002Z,40
2019-04-22T11:19:03.485Z,40
2019-04-22T11:20:03.702Z,40
2019-04-22T11:21:01.955Z,40
2019-04-22T11:22:09.671Z,41
2019-04-22T11:23:02.634Z,41
2019-04-22T11:24:02.954Z,41
2019-04-22T11:25:03.590Z,41
2019-04-22T11:26:03.779Z,41
2019-04-22T11:27:03.200Z,41
2019-04-22T11:28:02.254Z,40
2019-04-22T11:29:03.485Z,40
2019-04-22T11:30:03.806Z,40
2019-04-22T11:31:02.664Z,40
2019-04-22T11:32:02.225Z,40
2019-04-22T11:33:02.566Z,40
2019-04-22T11:34:02.750Z,38
2019-04-22T11:35:03.749Z,38
2019-04-22T11:36:02.004Z,38
2019-04-22T11:37:03.158Z,38
2019-04-22T11:38:02.092Z,38
2019-04-22T11:39:05.356Z,38
2019-04-22T11:40:15.110Z,34
2019-04-22T11:41:03.412Z,34
2019-04-22T11:42:02.451Z,34
2019-04-22T11:43:02.201Z,34
2019-04-22T11:44:01.454Z,34
2019-04-22T11:45:03.514Z,34
2019-04-22T11:46:05.533Z,36
2019-04-22T11:47:03.383Z,36
2019-04-22T11:48:03.496Z,36
2019-04-22T11:49:01.423Z,36
2019-04-22T11:50:02.122Z,36
2019-04-22T11:51:02.097Z,36
2019-04-22T11:52:04.784Z,31
2019-04-22T11:53:02.750Z,31
2019-04-22T11:54:02.927Z,31
2019-04-22T11:55:02.062Z,31
2019-04-22T11:56:02.877Z,31
2019-04-22T11:57:03.098Z,31
2019-04-22T11:58:02.982Z,31
2019-04-22T11:59:02.687Z,31
2019-04-22T12:00:04.984Z,31
2019-04-22T12:01:03.055Z,31
2019-04-22T12:02:02.566Z,31
2019-04-22T12:03:03.220Z,31
2019-04-22T12:04:02.338Z,25
2019-04-22T12:05:07.972Z,25
2019-04-22T12:06:02.172Z,25
2019-04-22T12:07:02.189Z,25
2019-04-22T12:08:02.990Z,25
2019-04-22T12:09:03.769Z,25
2019-04-22T12:10:15.314Z,21
2019-04-22T12:11:05.487Z,21
2019-04-22T12:12:03.400Z,21
2019-04-22T12:13:02.183Z,21
2019-04-22T12:14:02.426Z,21
2019-04-22T12:15:01.714Z,21
2019-04-22T12:16:03.202Z,19
2019-04-22T12:17:03.535Z,19
2019-04-22T12:18:03.692Z,19
2019-04-22T12:19:02.960Z,19
2019-04-22T12:20:04.755Z,19
2019-04-22T12:21:03.586Z,19
2019-04-22T12:22:02.884Z,19
2019-04-22T12:23:03.118Z,19
2019-04-22T12:24:01.667Z,19
2019-04-22T12:25:02.034Z,19
2019-04-22T12:26:08.623Z,19
2019-04-22T12:27:02.224Z,19
2019-04-22T12:28:05.351Z,18
2019-04-22T12:29:02.910Z,18
2019-04-22T12:30:03.011Z,18
2019-04-22T12:31:03.687Z,18
2019-04-22T12:32:01.462Z,18
2019-04-22T12:33:02.329Z,18
2019-04-22T12:34:01.913Z,21
2019-04-22T12:35:02.168Z,21
2019-04-22T12:36:02.646Z,21
2019-04-22T12:37:02.653Z,21
2019-04-22T12:38:06.472Z,21
2019-04-22T12:39:03.218Z,21
2019-04-22T12:40:02.674Z,17
2019-04-22T12:41:04.924Z,17
2019-04-22T12:42:02.783Z,17
2019-04-22T12:43:04.642Z,17
2019-04-22T12:44:03.306Z,17
2019-04-22T12:45:02.579Z,17
2019-04-22T12:46:02.429Z,17
2019-04-22T12:47:03.643Z,17
2019-04-22T12:48:02.441Z,17
2019-04-22T12:49:02.383Z,17
2019-04-22T12:50:10.355Z,17
2019-04-22T12:51:02.980Z,17
2019-04-22T12:52:03.092Z,18
2019-04-22T12:53:07.295Z,18
2019-04-22T12:54:01.514Z,18
2019-04-22T12:55:03.787Z,18
2019-04-22T12:56:02.930Z,18
2019-04-22T12:57:01.810Z,18
2019-04-22T12:58:02.822Z,15
2019-04-22T12:59:03.664Z,15
2019-04-22T13:00:05.747Z,15
2019-04-22T13:01:03.292Z,15
2019-04-22T13:02:04.894Z,15
2019-04-22T13:03:01.489Z,15
2019-04-22T13:04:06.924Z,17
2019-04-22T13:05:01.716Z,17
2019-04-22T13:06:01.875Z,17
2019-04-22T13:07:02.153Z,17
2019-04-22T13:08:02.350Z,17
2019-04-22T13:09:02.191Z,17
2019-04-22T13:10:01.632Z,21
2019-04-22T13:11:08.639Z,21
2019-04-22T13:12:03.354Z,21
2019-04-22T13:13:02.790Z,21
2019-04-22T13:14:03.048Z,21
2019-04-22T13:15:04.820Z,21
2019-04-22T13:16:02.765Z,21
2019-04-22T13:17:02.228Z,21
2019-04-22T13:18:12.857Z,21
2019-04-22T13:19:05.631Z,21
2019-04-22T13:20:02.666Z,21
2019-04-22T13:21:02.395Z,21
2019-04-22T13:22:02.908Z,16
2019-04-22T13:23:02.109Z,16
2019-04-22T13:24:02.735Z,16
2019-04-22T13:25:02.147Z,16
2019-04-22T13:26:03.091Z,16
2019-04-22T13:27:01.502Z,16
2019-04-22T13:28:03.020Z,18
2019-04-22T13:29:03.161Z,18
2019-04-22T13:30:05.680Z,18
2019-04-22T13:31:03.731Z,18
2019-04-22T13:32:02.557Z,18
2019-04-22T13:33:02.938Z,18
2019-04-22T13:34:04.046Z,16
2019-04-22T13:37:03.097Z,16
2019-04-22T13:38:01.830Z,16
2019-04-22T13:39:02.982Z,16
2019-04-22T13:40:03.583Z,13
2019-04-22T13:41:17.264Z,13
2019-04-22T13:42:04.021Z,13
2019-04-22T13:43:05.470Z,13
2019-04-22T13:44:02.083Z,13
2019-04-22T13:45:02.394Z,13
2019-04-22T13:46:03.827Z,16
2019-04-22T13:47:14.526Z,16
2019-04-22T13:48:16.809Z,16
2019-04-22T13:49:25.175Z,16
2019-04-22T13:50:32.674Z,16
2019-04-22T13:51:33.966Z,16
2019-04-22T13:52:44.568Z,18
2019-04-22T13:55:32.844Z,18
2019-04-22T13:56:22.262Z,18
2019-04-22T13:57:20.116Z,18
2019-04-22T13:58:14.669Z,16
2019-04-22T13:59:10.233Z,16
2019-04-22T14:00:07.903Z,16
2019-04-22T14:01:02.617Z,16
2019-04-22T14:02:02.270Z,16
2019-04-22T14:03:02.382Z,16
2019-04-22T14:04:02.645Z,18
2019-04-22T14:05:02.451Z,18
2019-04-22T14:06:02.679Z,18
2019-04-22T14:07:02.896Z,18
2019-04-22T14:08:04.291Z,18
2019-04-22T14:09:03.182Z,18
2019-04-22T14:10:02.694Z,18
2019-04-22T14:11:14.867Z,18
2019-04-22T14:12:05.741Z,18
2019-04-22T14:13:02.060Z,18
2019-04-22T14:14:02.876Z,18
2019-04-22T14:15:02.434Z,18
2019-04-22T14:16:01.653Z,24
2019-04-22T14:17:02.965Z,24
2019-04-22T14:18:03.089Z,24
2019-04-22T14:19:02.369Z,24
2019-04-22T14:20:02.611Z,24
2019-04-22T14:21:02.843Z,24
2019-04-22T14:22:02.113Z,22
2019-04-22T14:23:03.122Z,22
2019-04-22T14:24:02.721Z,22
2019-04-22T14:25:02.923Z,22
2019-04-22T14:26:01.603Z,22
2019-04-22T14:27:15.161Z,22
2019-04-22T14:28:06.350Z,25
2019-04-22T14:29:02.200Z,25
2019-04-22T14:30:02.022Z,25
2019-04-22T14:31:02.378Z,25
2019-04-22T14:32:09.256Z,25
2019-04-22T14:33:02.669Z,25
2019-04-22T14:34:05.306Z,25
2019-04-22T14:35:02.986Z,25
2019-04-22T14:36:02.544Z,25
2019-04-22T14:37:01.872Z,25
2019-04-22T14:38:02.022Z,25
2019-04-22T14:39:02.186Z,25
2019-04-22T14:40:07.104Z,26
2019-04-22T14:41:02.541Z,26
2019-04-22T14:42:21.608Z,26
2019-04-22T14:45:04.997Z,26
2019-04-22T14:45:30.675Z,26
2019-04-22T14:46:30.612Z,25
2019-04-22T14:48:19.929Z,25
2019-04-22T14:49:23.948Z,25
2019-04-22T14:50:23.695Z,25
2019-04-22T14:51:21.860Z,25
2019-04-22T14:52:31.430Z,30
2019-04-22T14:53:21.747Z,30
2019-04-22T14:54:21.165Z,30
2019-04-22T14:55:09.087Z,30
2019-04-22T14:56:02.366Z,30
2019-04-22T14:57:01.457Z,30
2019-04-22T14:58:01.616Z,30
2019-04-22T14:59:02.953Z,30
2019-04-22T15:00:02.447Z,30
2019-04-22T15:01:03.217Z,30
2019-04-22T15:02:03.420Z,30
2019-04-22T15:03:03.684Z,30
2019-04-22T15:04:02.831Z,26
2019-04-22T15:05:01.655Z,26
2019-04-22T15:06:02.224Z,26
2019-04-22T15:07:03.089Z,26
2019-04-22T15:08:03.283Z,26
2019-04-22T15:09:01.900Z,26
2019-04-22T15:10:02.072Z,20
2019-04-22T15:11:02.202Z,20
2019-04-22T15:12:10.995Z,20
2019-04-22T15:13:02.962Z,20
2019-04-22T15:14:03.158Z,20
2019-04-22T15:15:01.964Z,20
2019-04-22T15:16:03.222Z,23
2019-04-22T15:17:02.690Z,23
2019-04-22T15:18:02.959Z,23
2019-04-22T15:19:02.071Z,23
2019-04-22T15:20:03.700Z,23
2019-04-22T15:21:02.730Z,23
2019-04-22T15:22:02.988Z,21
2019-04-22T15:23:04.623Z,21
2019-04-22T15:24:02.432Z,21
2019-04-22T15:25:02.963Z,21
2019-04-22T15:26:02.230Z,21
2019-04-22T15:27:02.578Z,21
2019-04-22T15:28:03.690Z,22
2019-04-22T15:29:02.840Z,22
2019-04-22T15:30:03.408Z,22
2019-04-22T15:31:03.486Z,22
2019-04-22T15:32:03.198Z,22
2019-04-22T15:33:01.615Z,22
2019-04-22T15:34:02.666Z,24
2019-04-22T15:35:02.098Z,24
2019-04-22T15:36:03.603Z,24
2019-04-22T15:37:02.349Z,24
2019-04-22T15:38:04.500Z,24
2019-04-22T15:39:02.966Z,24
2019-04-22T15:40:02.887Z,22
2019-04-22T15:41:02.830Z,22
2019-04-22T15:42:11.551Z,22
2019-04-22T15:43:02.647Z,22
2019-04-22T15:44:03.618Z,22
2019-04-22T15:45:02.599Z,22
2019-04-22T15:46:03.865Z,24
2019-04-22T15:47:02.804Z,24
2019-04-22T15:48:02.231Z,24
2019-04-22T15:49:02.130Z,24
2019-04-22T15:50:01.719Z,24
2019-04-22T15:51:02.866Z,24
2019-04-22T15:52:04.632Z,181
2019-04-22T15:53:02.997Z,181
2019-04-22T15:54:03.482Z,181
2019-04-22T15:55:02.979Z,181
2019-04-22T15:56:02.892Z,181
2019-04-22T15:57:02.496Z,181
2019-04-22T15:58:02.022Z,27
2019-04-22T15:59:09.880Z,27
2019-04-22T16:00:18.252Z,27
2019-04-22T16:01:10.884Z,27
2019-04-22T16:02:02.634Z,27
2019-04-22T16:03:04.895Z,27
2019-04-22T16:04:02.821Z,42
2019-04-22T16:05:02.708Z,42
2019-04-22T16:06:02.283Z,42
2019-04-22T16:07:03.159Z,42
2019-04-22T16:08:03.239Z,42
2019-04-22T16:09:02.687Z,42
2019-04-22T16:10:03.829Z,40
2019-04-22T16:11:02.067Z,40
2019-04-22T16:12:15.173Z,40
2019-04-22T16:13:10.581Z,40
2019-04-22T16:14:02.192Z,40
2019-04-22T16:15:03.279Z,40
2019-04-22T16:16:02.704Z,49
2019-04-22T16:17:01.833Z,49
2019-04-22T16:18:04.841Z,49
2019-04-22T16:19:02.579Z,49
2019-04-22T16:20:03.287Z,49
2019-04-22T16:21:02.886Z,49
2019-04-22T16:22:07.698Z,43
2019-04-22T16:23:03.486Z,43
2019-04-22T16:24:02.574Z,43
2019-04-22T16:25:02.384Z,43
2019-04-22T16:26:03.301Z,43
2019-04-22T16:27:02.483Z,43
2019-04-22T16:28:02.968Z,17
2019-04-22T16:29:03.201Z,17
2019-04-22T16:30:03.426Z,17
2019-04-22T16:31:03.836Z,17
2019-04-22T16:32:03.030Z,17
2019-04-22T16:33:01.787Z,17
2019-04-22T16:34:02.663Z,20
2019-04-22T16:35:02.291Z,20
2019-04-22T16:36:02.682Z,20
2019-04-22T16:37:02.873Z,20
2019-04-22T16:38:01.865Z,20
2019-04-22T16:39:02.753Z,20
2019-04-22T16:40:03.031Z,16
2019-04-22T16:41:02.915Z,16